createdAt,value
2022-12-20T00:01:18.370Z,78.60
2022-12-20T00:03:46.238Z,79.80
2022-12-20T00:06:15.623Z,78.70
2022-12-20T00:08:43.111Z,79.10
2022-12-20T00:11:11.068Z,79.50
2022-12-20T00:13:40.241Z,78.10
2022-12-20T00:16:09.070Z,78.00
2022-12-20T00:18:37.827Z,77.70
2022-12-20T00:21:06.859Z,78.20
2022-12-20T00:23:35.561Z,77.70
2022-12-20T00:26:14.118Z,77.50
2022-12-20T00:28:42.324Z,80.30
2022-12-20T00:31:11.626Z,81.00
2022-12-20T00:33:40.129Z,79.50
2022-12-20T00:36:09.253Z,79.90
2022-12-20T00:38:38.673Z,79.00
2022-12-20T00:41:08.273Z,78.50
2022-12-20T00:43:36.430Z,78.20
2022-12-20T00:46:04.630Z,77.90
2022-12-20T00:48:33.202Z,77.00
2022-12-20T00:51:01.811Z,77.60
2022-12-20T00:53:30.613Z,75.90
2022-12-20T00:55:58.838Z,74.90
2022-12-20T00:58:27.901Z,75.90
2022-12-20T01:00:57.149Z,74.70
2022-12-20T01:03:26.479Z,74.70
2022-12-20T01:05:55.022Z,74.70
2022-12-20T01:08:23.589Z,74.20
2022-12-20T01:11:05.394Z,73.80
2022-12-20T01:13:34.419Z,74.10
2022-12-20T01:16:07.293Z,73.90
2022-12-20T01:18:35.277Z,73.30
2022-12-20T01:21:04.862Z,73.50
2022-12-20T01:23:32.753Z,73.30
2022-12-20T01:26:00.958Z,73.20
2022-12-20T01:28:29.990Z,72.90
2022-12-20T01:30:57.786Z,73.30
2022-12-20T01:33:25.641Z,73.60
2022-12-20T01:36:00.505Z,73.20
2022-12-20T01:38:28.975Z,73.10
2022-12-20T01:41:03.938Z,73.50
2022-12-20T01:43:50.898Z,73.50
2022-12-20T01:46:20.865Z,72.60
2022-12-20T01:48:56.495Z,72.50
2022-12-20T01:51:29.566Z,72.80
2022-12-20T01:54:02.991Z,72.90
2022-12-20T01:56:34.505Z,72.60
2022-12-20T02:03:15.642Z,72.90
2022-12-20T02:05:49.943Z,72.40
2022-12-20T02:08:19.237Z,73.00
2022-12-20T02:11:05.576Z,73.60
2022-12-20T02:13:33.126Z,73.50
2022-12-20T02:16:01.052Z,73.50
2022-12-20T02:18:33.470Z,72.90
2022-12-20T02:21:21.047Z,72.20
2022-12-20T02:23:50.110Z,72.90
2022-12-20T02:26:28.125Z,72.60
2022-12-20T02:28:56.459Z,72.40
2022-12-20T02:31:33.586Z,72.20
2022-12-20T02:34:03.235Z,72.90
2022-12-20T02:36:30.790Z,71.60
2022-12-20T02:38:58.950Z,72.50
2022-12-20T02:41:59.290Z,72.50
2022-12-20T02:44:47.427Z,72.50
2022-12-20T02:47:19.165Z,72.30
2022-12-20T02:49:47.865Z,72.40
2022-12-20T02:52:18.543Z,71.20
2022-12-20T02:54:47.528Z,71.80
2022-12-20T02:57:41.648Z,71.60
2022-12-20T03:00:11.224Z,71.30
2022-12-20T03:02:57.513Z,71.40
2022-12-20T03:05:30.143Z,70.90
2022-12-20T03:07:58.309Z,71.50
2022-12-20T03:10:26.383Z,71.20
2022-12-20T03:12:54.180Z,71.10
2022-12-20T03:15:22.047Z,71.70
2022-12-20T03:17:51.144Z,71.50
2022-12-20T03:20:19.320Z,71.20
2022-12-20T03:22:48.167Z,71.60
2022-12-20T03:25:15.775Z,71.70
2022-12-20T03:27:44.108Z,70.90
2022-12-20T03:30:12.318Z,71.00
2022-12-20T03:32:41.312Z,71.00
2022-12-20T03:35:09.135Z,70.80
2022-12-20T03:37:39.440Z,71.00
2022-12-20T03:40:07.418Z,70.60
2022-12-20T03:42:35.374Z,70.40
2022-12-20T03:45:02.937Z,70.40
2022-12-20T03:47:30.425Z,70.30
2022-12-20T03:49:58.171Z,69.70
2022-12-20T03:52:26.685Z,69.50
2022-12-20T03:54:54.930Z,69.20
2022-12-20T03:57:23.304Z,69.10
2022-12-20T03:59:53.651Z,68.90
2022-12-20T04:02:22.090Z,68.90
2022-12-20T04:04:50.740Z,68.80
2022-12-20T04:07:18.398Z,68.10
2022-12-20T04:09:46.526Z,68.40
2022-12-20T04:12:14.173Z,68.10
2022-12-20T04:14:41.922Z,68.40
2022-12-20T04:17:09.477Z,68.20
2022-12-20T04:19:38.544Z,67.20
2022-12-20T04:22:06.469Z,67.60
2022-12-20T04:24:34.260Z,67.60
2022-12-20T04:27:01.745Z,68.00
2022-12-20T04:29:29.609Z,68.20
2022-12-20T04:31:57.205Z,67.90
2022-12-20T04:34:24.797Z,67.90
2022-12-20T04:36:52.618Z,67.40
2022-12-20T04:39:21.589Z,66.40
2022-12-20T04:44:21.909Z,66.50
2022-12-20T04:49:15.193Z,66.70
2022-12-20T04:51:43.928Z,66.40
2022-12-20T04:54:11.564Z,66.80
2022-12-20T04:56:39.869Z,64.70
2022-12-20T04:59:12.695Z,65.00
2022-12-20T05:01:40.961Z,65.40
2022-12-20T05:04:08.770Z,65.00
2022-12-20T05:06:37.820Z,66.00
2022-12-20T05:09:05.589Z,65.40
2022-12-20T05:11:34.160Z,65.30
2022-12-20T05:14:02.405Z,65.10
2022-12-20T05:16:29.983Z,65.30
2022-12-20T05:18:57.528Z,63.60
2022-12-20T05:21:44.749Z,63.90
2022-12-20T05:24:30.769Z,64.40
2022-12-20T05:26:58.808Z,65.30
2022-12-20T05:29:26.465Z,62.30
2022-12-20T05:34:39.583Z,63.90
2022-12-20T05:37:07.155Z,63.20
2022-12-20T05:39:35.829Z,61.50
2022-12-20T05:42:03.636Z,62.70
2022-12-20T05:44:31.165Z,63.00
2022-12-20T05:47:01.111Z,63.60
2022-12-20T05:49:29.453Z,63.40
2022-12-20T05:51:57.871Z,62.30
2022-12-20T05:54:25.802Z,64.20
2022-12-20T05:56:56.503Z,62.70
2022-12-20T05:59:24.040Z,63.30
2022-12-20T06:01:51.666Z,62.60
2022-12-20T06:04:23.458Z,63.40
2022-12-20T06:06:51.002Z,64.20
2022-12-20T06:09:18.787Z,62.60
2022-12-20T06:11:47.873Z,62.10
2022-12-20T06:14:15.413Z,61.60
2022-12-20T06:16:43.892Z,60.70
2022-12-20T06:19:16.016Z,62.20
2022-12-20T06:21:46.968Z,62.60
2022-12-20T06:24:16.272Z,62.00
2022-12-20T06:26:46.868Z,63.10
2022-12-20T06:29:17.677Z,62.40
2022-12-20T06:31:49.380Z,61.80
2022-12-20T06:34:17.096Z,61.20
2022-12-20T06:36:44.897Z,62.10
2022-12-20T06:39:12.488Z,61.20
2022-12-20T06:41:40.834Z,60.10
2022-12-20T06:44:08.609Z,60.50
2022-12-20T06:46:37.021Z,60.20
2022-12-20T06:49:05.368Z,62.60
2022-12-20T06:51:32.931Z,61.30
2022-12-20T06:54:00.558Z,62.20
2022-12-20T06:56:39.229Z,61.30
2022-12-20T06:59:08.798Z,61.70
2022-12-20T07:01:37.316Z,60.50
2022-12-20T07:04:05.291Z,62.40
2022-12-20T07:06:33.006Z,58.80
2022-12-20T07:09:00.650Z,59.80
2022-12-20T07:11:28.253Z,58.40
2022-12-20T07:13:57.911Z,59.60
2022-12-20T07:16:25.934Z,60.30
2022-12-20T07:18:54.805Z,60.80
2022-12-20T07:21:22.631Z,58.20
2022-12-20T07:23:50.440Z,59.30
2022-12-20T07:26:18.322Z,59.90
2022-12-20T07:28:47.333Z,58.90
2022-12-20T07:31:14.938Z,59.00
2022-12-20T07:33:42.573Z,58.80
2022-12-20T07:36:12.727Z,58.70
2022-12-20T07:38:43.385Z,60.10
2022-12-20T07:41:12.050Z,59.70
2022-12-20T07:43:39.971Z,60.70
2022-12-20T07:46:08.044Z,59.40
2022-12-20T07:48:37.317Z,60.30
2022-12-20T07:51:12.442Z,59.70
2022-12-20T07:53:42.407Z,58.50
2022-12-20T07:56:11.444Z,59.60
2022-12-20T07:58:40.611Z,60.20
2022-12-20T08:01:08.366Z,59.60
2022-12-20T08:03:44.089Z,59.90
2022-12-20T08:06:12.982Z,57.50
2022-12-20T08:08:45.767Z,59.30
2022-12-20T08:11:13.752Z,60.50
2022-12-20T08:13:46.317Z,60.50
2022-12-20T08:16:15.057Z,60.40
2022-12-20T08:18:43.673Z,60.40
2022-12-20T08:21:14.013Z,60.20
2022-12-20T08:23:41.835Z,60.40
2022-12-20T08:26:16.587Z,59.20
2022-12-20T08:28:44.438Z,59.70
2022-12-20T08:31:14.055Z,59.90
2022-12-20T08:33:41.683Z,59.50
2022-12-20T08:36:11.178Z,57.50
2022-12-20T08:38:39.572Z,59.40
2022-12-20T08:41:12.083Z,58.50
2022-12-20T08:43:40.318Z,60.00
2022-12-20T08:46:09.080Z,59.50
2022-12-20T08:48:37.086Z,60.00
2022-12-20T08:51:07.047Z,60.00
2022-12-20T08:53:35.671Z,59.40
2022-12-20T08:56:11.266Z,59.30
2022-12-20T08:58:40.221Z,58.90
2022-12-20T09:01:09.156Z,60.20
2022-12-20T09:03:37.661Z,59.90
2022-12-20T09:06:37.834Z,58.60
2022-12-20T09:09:08.926Z,59.40
2022-12-20T09:11:36.434Z,58.00
2022-12-20T09:14:04.006Z,59.00
2022-12-20T09:16:33.428Z,60.20
2022-12-20T09:19:06.696Z,59.60
2022-12-20T09:21:37.978Z,59.00
2022-12-20T09:24:06.492Z,59.10
2022-12-20T09:26:35.476Z,58.90
2022-12-20T09:29:03.755Z,59.60
2022-12-20T09:31:34.203Z,59.50
2022-12-20T09:34:01.905Z,59.20
2022-12-20T09:36:30.298Z,59.70
2022-12-20T09:38:58.667Z,59.50
2022-12-20T09:41:34.577Z,60.00
2022-12-20T09:44:06.052Z,60.30
2022-12-20T09:46:33.709Z,59.30
2022-12-20T09:49:01.225Z,59.10
2022-12-20T09:51:31.765Z,59.40
2022-12-20T09:54:02.352Z,59.60
2022-12-20T09:57:08.387Z,60.20
2022-12-20T09:59:43.267Z,59.80
2022-12-20T10:04:42.747Z,59.70
2022-12-20T10:07:28.463Z,60.80
2022-12-20T10:10:14.600Z,60.90
2022-12-20T10:13:01.114Z,60.90
2022-12-20T10:18:35.884Z,61.00
2022-12-20T10:21:11.729Z,60.80
2022-12-20T10:23:40.178Z,60.70
2022-12-20T10:26:11.795Z,60.90
2022-12-20T10:28:39.859Z,61.20
2022-12-20T10:31:08.936Z,61.00
2022-12-20T10:33:36.448Z,60.90
2022-12-20T10:36:24.503Z,61.60
2022-12-20T10:38:53.484Z,61.40
2022-12-20T10:41:23.582Z,61.50
2022-12-20T10:44:02.031Z,61.50
2022-12-20T10:46:55.928Z,61.60
2022-12-20T10:49:34.425Z,61.50
2022-12-20T10:52:03.789Z,61.50
2022-12-20T10:54:34.206Z,61.60
2022-12-20T10:57:03.401Z,61.80
2022-12-20T10:59:30.811Z,61.60
2022-12-20T11:02:00.158Z,61.70
2022-12-20T11:04:30.422Z,62.00
2022-12-20T11:07:00.074Z,62.10
2022-12-20T11:09:38.444Z,62.10
2022-12-20T11:12:16.394Z,62.50
2022-12-20T11:14:44.989Z,63.30
2022-12-20T11:17:15.245Z,62.40
2022-12-20T11:19:52.024Z,62.40
2022-12-20T11:22:19.538Z,62.60
2022-12-20T11:24:58.125Z,62.70
2022-12-20T11:27:28.946Z,62.80
2022-12-20T11:30:10.036Z,62.80
2022-12-20T11:32:48.723Z,62.70
2022-12-20T11:35:19.872Z,63.00
2022-12-20T11:37:58.773Z,63.20
2022-12-20T11:40:33.926Z,63.20
2022-12-20T11:43:21.531Z,63.20
2022-12-20T11:46:14.833Z,63.20
2022-12-20T11:48:48.132Z,63.00
2022-12-20T11:51:22.917Z,63.20
2022-12-20T11:53:56.696Z,63.20
2022-12-20T11:56:53.490Z,63.20
2022-12-20T11:59:41.037Z,63.20
2022-12-20T12:02:11.509Z,63.30
2022-12-20T12:04:44.633Z,63.30
2022-12-20T12:07:31.922Z,63.40
2022-12-20T12:10:05.698Z,63.40
2022-12-20T12:12:43.251Z,63.20
2022-12-20T12:15:17.527Z,63.20
2022-12-20T12:17:48.050Z,63.20
2022-12-20T12:20:27.958Z,63.20
2022-12-20T12:22:58.879Z,63.10
2022-12-20T12:25:26.420Z,63.00
2022-12-20T12:27:54.723Z,62.90
2022-12-20T12:30:23.072Z,63.20
2022-12-20T12:32:54.554Z,63.30
2022-12-20T12:35:40.259Z,63.30
2022-12-20T12:38:20.850Z,63.50
2022-12-20T12:41:02.265Z,63.70
2022-12-20T12:43:48.389Z,63.90
2022-12-20T12:46:30.177Z,64.00
2022-12-20T12:49:03.661Z,64.30
2022-12-20T12:51:35.543Z,64.50
2022-12-20T12:54:12.792Z,64.60
2022-12-20T12:56:46.653Z,64.70
2022-12-20T12:59:22.896Z,64.80
2022-12-20T13:02:16.721Z,65.00
2022-12-20T13:04:56.650Z,65.20
2022-12-20T13:07:33.354Z,65.10
2022-12-20T13:10:01.757Z,65.20
2022-12-20T13:12:39.044Z,65.30
2022-12-20T13:15:21.655Z,65.40
2022-12-20T13:17:49.418Z,65.50
2022-12-20T13:20:27.324Z,65.70
2022-12-20T13:23:12.973Z,65.60
2022-12-20T13:25:56.023Z,65.70
2022-12-20T13:28:23.496Z,65.70
2022-12-20T13:30:51.000Z,65.80
2022-12-20T13:33:20.710Z,65.80
2022-12-20T13:35:56.413Z,65.80
2022-12-20T13:38:49.047Z,65.90
2022-12-20T13:41:16.547Z,66.00
2022-12-20T13:43:46.317Z,66.00
2022-12-20T13:46:15.434Z,66.10
2022-12-20T13:48:51.852Z,66.10
2022-12-20T13:51:20.964Z,66.20
2022-12-20T13:53:58.979Z,66.20
2022-12-20T13:56:29.978Z,66.20
2022-12-20T13:58:59.469Z,66.30
2022-12-20T14:01:27.230Z,66.40
2022-12-20T14:03:55.162Z,66.30
2022-12-20T14:06:26.942Z,66.50
2022-12-20T14:08:54.839Z,66.50
2022-12-20T14:11:23.683Z,66.50
2022-12-20T14:13:57.385Z,66.70
2022-12-20T14:16:25.975Z,66.60
2022-12-20T14:19:05.494Z,66.70
2022-12-20T14:21:37.154Z,66.60
2022-12-20T14:24:05.021Z,66.60
2022-12-20T14:26:44.895Z,66.70
2022-12-20T14:29:17.403Z,66.70
2022-12-20T14:31:46.886Z,66.70
2022-12-20T14:34:24.536Z,66.70
2022-12-20T14:37:14.843Z,66.70
2022-12-20T14:39:55.521Z,67.10
2022-12-20T14:42:23.015Z,67.10
2022-12-20T14:44:51.309Z,67.10
2022-12-20T14:47:22.169Z,67.10
2022-12-20T14:49:52.803Z,67.20
2022-12-20T14:52:35.562Z,67.10
2022-12-20T14:55:10.783Z,67.20
2022-12-20T14:57:38.844Z,67.30
2022-12-20T15:00:12.298Z,67.30
2022-12-20T15:02:40.457Z,67.40
2022-12-20T15:05:28.754Z,67.70
2022-12-20T15:07:56.539Z,67.90
2022-12-20T15:10:24.112Z,68.00
2022-12-20T15:12:51.934Z,68.20
2022-12-20T15:15:34.078Z,68.30
2022-12-20T15:18:01.798Z,68.30
2022-12-20T15:20:29.317Z,68.50
2022-12-20T15:22:56.857Z,68.50
2022-12-20T15:25:24.449Z,68.90
2022-12-20T15:27:52.184Z,69.00
2022-12-20T15:30:19.733Z,68.90
2022-12-20T15:32:55.128Z,69.00
2022-12-20T15:35:25.093Z,69.10
2022-12-20T15:37:52.639Z,69.30
2022-12-20T15:40:20.215Z,69.20
2022-12-20T15:42:47.770Z,69.00
2022-12-20T15:45:15.564Z,69.20
2022-12-20T15:47:43.187Z,69.20
2022-12-20T15:50:12.126Z,69.30
2022-12-20T15:52:39.736Z,69.20
2022-12-20T15:55:07.606Z,69.10
2022-12-20T15:57:35.128Z,69.20
2022-12-20T16:00:04.001Z,69.00
2022-12-20T16:02:33.132Z,69.00
2022-12-20T16:05:01.854Z,69.00
2022-12-20T16:07:29.525Z,68.90
2022-12-20T16:09:57.153Z,69.10
2022-12-20T16:12:29.770Z,69.00
2022-12-20T16:14:57.520Z,69.10
2022-12-20T16:17:25.979Z,69.30
2022-12-20T16:19:53.628Z,69.20
2022-12-20T16:22:22.572Z,69.30
2022-12-20T16:24:50.220Z,69.70
2022-12-20T16:27:18.034Z,69.50
2022-12-20T16:29:45.763Z,69.40
2022-12-20T16:32:17.272Z,69.20
2022-12-20T16:34:46.348Z,69.60
2022-12-20T16:37:14.321Z,69.50
2022-12-20T16:39:42.115Z,69.70
2022-12-20T16:42:13.444Z,69.70
2022-12-20T16:44:42.948Z,70.00
2022-12-20T16:47:10.796Z,70.10
2022-12-20T16:49:38.416Z,70.10
2022-12-20T16:52:06.882Z,70.10
2022-12-20T16:54:34.445Z,70.00
2022-12-20T16:57:01.985Z,70.00
2022-12-20T16:59:29.845Z,69.90
2022-12-20T17:01:57.774Z,69.80
2022-12-20T17:04:27.031Z,69.80
2022-12-20T17:06:54.860Z,70.60
2022-12-20T17:09:22.399Z,70.20
2022-12-20T17:11:50.420Z,70.30
2022-12-20T17:14:20.183Z,70.30
2022-12-20T17:16:47.852Z,70.30
2022-12-20T17:19:15.522Z,70.60
2022-12-20T17:24:30.043Z,70.20
2022-12-20T17:26:57.718Z,70.00
2022-12-20T17:29:25.223Z,69.80
2022-12-20T17:31:52.837Z,69.40
2022-12-20T17:34:21.388Z,69.40
2022-12-20T17:36:50.678Z,69.20
2022-12-20T17:39:18.661Z,69.00
2022-12-20T17:41:46.422Z,68.70
2022-12-20T17:44:21.502Z,68.30
2022-12-20T17:46:49.145Z,68.30
2022-12-20T17:49:17.082Z,68.20
2022-12-20T17:51:45.756Z,68.20
2022-12-20T17:54:24.437Z,68.10
2022-12-20T17:56:54.071Z,68.00
2022-12-20T17:59:22.538Z,67.90
2022-12-20T18:01:50.222Z,67.90
2022-12-20T18:04:18.082Z,67.90
2022-12-20T18:06:46.280Z,67.60
2022-12-20T18:09:15.897Z,68.00
2022-12-20T18:11:43.497Z,67.70
2022-12-20T18:14:11.357Z,67.60
2022-12-20T18:16:42.295Z,67.60
2022-12-20T18:19:15.039Z,67.60
2022-12-20T18:21:42.611Z,67.60
2022-12-20T18:24:14.389Z,67.60
2022-12-20T18:26:42.406Z,67.60
2022-12-20T18:29:10.442Z,67.60
2022-12-20T18:31:38.215Z,67.70
2022-12-20T18:34:05.849Z,67.70
2022-12-20T18:36:34.941Z,67.70
2022-12-20T18:39:03.419Z,67.80
2022-12-20T18:41:31.012Z,67.80
2022-12-20T18:44:04.104Z,67.80
2022-12-20T18:46:31.642Z,67.70
2022-12-20T18:49:00.484Z,68.00
2022-12-20T18:51:33.166Z,67.90
2022-12-20T18:54:00.975Z,67.80
2022-12-20T18:56:33.161Z,67.80
2022-12-20T18:59:08.063Z,67.70
2022-12-20T19:01:39.273Z,67.80
2022-12-20T19:04:07.923Z,67.80
2022-12-20T19:06:36.518Z,67.80
2022-12-20T19:09:06.216Z,67.70
2022-12-20T19:11:33.933Z,67.70
2022-12-20T19:14:01.696Z,67.80
2022-12-20T19:16:32.361Z,67.90
2022-12-20T19:19:00.544Z,68.20
2022-12-20T19:21:29.352Z,68.20
2022-12-20T19:23:58.402Z,68.10
2022-12-20T19:26:27.626Z,68.10
2022-12-20T19:28:55.204Z,68.20
2022-12-20T19:31:24.273Z,68.30
2022-12-20T19:33:56.357Z,68.60
2022-12-20T19:36:28.502Z,68.50
2022-12-20T19:38:58.715Z,68.60
2022-12-20T19:41:27.792Z,68.60
2022-12-20T19:43:55.890Z,68.50
2022-12-20T19:46:28.769Z,68.50
2022-12-20T19:48:58.578Z,68.80
2022-12-20T19:51:26.622Z,69.10
2022-12-20T19:53:55.046Z,68.90
2022-12-20T19:56:24.123Z,69.00
2022-12-20T19:58:53.069Z,69.00
2022-12-20T20:01:23.213Z,69.30
2022-12-20T20:03:51.087Z,69.60
2022-12-20T20:06:19.435Z,69.40
2022-12-20T20:08:48.506Z,69.40
2022-12-20T20:11:17.730Z,69.70
2022-12-20T20:13:45.645Z,69.80
2022-12-20T20:16:16.942Z,70.00
2022-12-20T20:18:49.497Z,70.00
2022-12-20T20:21:19.301Z,69.90
2022-12-20T20:23:47.266Z,70.10
2022-12-20T20:26:16.278Z,70.10
2022-12-20T20:28:44.919Z,70.30
2022-12-20T20:31:14.272Z,70.80
2022-12-20T20:33:42.692Z,70.70
2022-12-20T20:36:12.767Z,70.50
2022-12-20T20:38:40.864Z,70.70
2022-12-20T20:41:09.287Z,70.90
2022-12-20T20:43:38.016Z,71.40
2022-12-20T20:46:07.031Z,72.50
2022-12-20T20:48:35.152Z,73.90
2022-12-20T20:51:02.686Z,73.60
2022-12-20T20:53:33.948Z,73.10
2022-12-20T20:56:02.680Z,72.00
2022-12-20T20:58:30.701Z,72.70
2022-12-20T21:00:59.309Z,72.80
2022-12-20T21:03:28.005Z,73.90
2022-12-20T21:08:44.017Z,73.70
2022-12-20T21:11:11.867Z,74.40
2022-12-20T21:13:39.576Z,74.70
2022-12-20T21:16:08.481Z,74.70
2022-12-20T21:18:36.083Z,74.40
2022-12-20T21:21:10.811Z,74.10
2022-12-20T21:23:39.582Z,73.90
2022-12-20T21:26:07.879Z,75.30
2022-12-20T21:28:36.034Z,74.90
2022-12-20T21:31:05.814Z,73.90
2022-12-20T21:33:33.385Z,74.70
2022-12-20T21:36:27.824Z,75.80
2022-12-20T21:38:56.415Z,76.70
2022-12-20T21:41:26.082Z,76.20
2022-12-20T21:43:58.111Z,76.60
2022-12-20T21:46:26.135Z,77.50
2022-12-20T21:48:54.619Z,76.90
2022-12-20T21:51:23.506Z,77.00
2022-12-20T21:53:51.954Z,77.20
2022-12-20T21:56:19.969Z,77.10
2022-12-20T21:58:47.813Z,77.60
2022-12-20T22:01:17.449Z,78.00
2022-12-20T22:03:45.633Z,76.90
2022-12-20T22:06:13.223Z,77.10
2022-12-20T22:08:40.741Z,77.30
2022-12-20T22:11:12.519Z,76.70
2022-12-20T22:13:41.885Z,77.00
2022-12-20T22:16:10.877Z,77.70
2022-12-20T22:18:38.780Z,78.30
2022-12-20T22:21:07.382Z,78.50
2022-12-20T22:23:34.861Z,79.50
2022-12-20T22:26:03.595Z,79.70
2022-12-20T22:28:31.750Z,79.80
2022-12-20T22:30:59.296Z,80.00
2022-12-20T22:33:27.665Z,79.80
2022-12-20T22:35:55.174Z,79.10
2022-12-20T22:38:22.692Z,79.90
2022-12-20T22:40:50.187Z,79.90
2022-12-20T22:43:17.785Z,80.20
2022-12-20T22:45:57.485Z,80.80
2022-12-20T22:48:25.287Z,81.00
2022-12-20T22:50:59.789Z,81.10
2022-12-20T22:53:27.520Z,80.80
2022-12-20T22:55:55.548Z,81.60
2022-12-20T22:58:24.133Z,81.90
2022-12-20T23:00:51.797Z,81.00
2022-12-20T23:03:19.432Z,80.90
2022-12-20T23:05:57.104Z,80.40
2022-12-20T23:08:25.286Z,81.30
2022-12-20T23:11:11.124Z,81.90
2022-12-20T23:13:57.686Z,81.60
2022-12-20T23:16:25.759Z,81.80
2022-12-20T23:18:56.830Z,81.40
2022-12-20T23:21:42.985Z,81.70
2022-12-20T23:24:11.082Z,81.40
2022-12-20T23:26:38.947Z,82.00
2022-12-20T23:29:07.552Z,82.60
2022-12-20T23:31:35.279Z,82.00
2022-12-20T23:34:03.085Z,81.10
2022-12-20T23:36:30.850Z,80.40
2022-12-20T23:38:58.356Z,82.10
2022-12-20T23:41:25.906Z,81.30
2022-12-20T23:43:54.193Z,82.80
2022-12-20T23:46:24.405Z,81.20
2022-12-20T23:48:52.567Z,81.30
2022-12-20T23:51:20.664Z,81.20
2022-12-20T23:53:48.675Z,80.90
2022-12-20T23:56:17.598Z,82.10
2022-12-20T23:58:45.445Z,82.50
